Thunder radar more information blitzortung!


avis per Pluja more information rain snow radar


Visita la nostra xarxa de llocs de meteo:

Template documentation
and downloads

And another site



Rain From: 18-11-2018 11:00 Until: 20:59 warning for: Rain Level: Yellow info button

Pagina Historial Weather Underground text

Diari Resum January 24, 2018 Unitats:  Mètric    Imperial   Tant
« Previous Dia
SegĂźent Dia »
Diari Setmana Mensual Anual Personalitzada
  Maxima: Minima: Media:
Temperatura: -17.8 °C 4.8 °C 11.3 °C
Punt de rosada: -17.8 °C 1.9 °C 5.8 °C
Humitat: Humidity % 53 % 69 %
Wind Speed: 0 km/h 0 km/h 4.2 km/h
RĂ fegues de vent: 0 km/h - -
Vent:- - SSW
Pression baro: 0 hPa 1027 hPa -
Precipitacions: 0 mm    
Historical Graphs
 
 
Dades de taula per January 24, 2018
Temps Temperatura Punt de rosada Pression baro Vent Wind Speed RĂ fegues de vent Humitat Rainfall Rate (Hourly)
-17.8 °C -17.8 °C 0 hPa Calm     Humidity % 0 mm
00:05 6 °C 2.8 °C 1029 hPa WSW 3.2 km/h 3.2 km/h 80 % 0 mm
00:08 8.3 °C 4.1 °C 1030.7 hPa West 1.9 km/h 1.9 km/h 75 % 0 mm
00:13 8.3 °C 4.1 °C 1030.7 hPa Calm     75 % 0 mm
00:15 6.1 °C 2.9 °C 1029 hPa Calm   3.2 km/h 80 % 0 mm
00:18 8.2 °C 4.1 °C 1030.7 hPa WSW 3.7 km/h 3.7 km/h 75 % 0 mm
00:23 8.3 °C 4.1 °C 1030.7 hPa Calm     75 % 0 mm
00:25 6 °C 2.8 °C 1029 hPa Calm   3.2 km/h 80 % 0 mm
00:28 8.2 °C 4.2 °C 1030.7 hPa Calm     76 % 0 mm
00:33 8.1 °C 4.1 °C 1030.7 hPa Calm     76 % 0 mm
00:35 6 °C 3 °C 1029 hPa Calm     81 % 0 mm
00:38 8.2 °C 4.2 °C 1030.7 hPa WSW 1.9 km/h 2.3 km/h 76 % 0 mm
00:45 6 °C 3 °C 1029 hPa NW 1.6 km/h 1.6 km/h 81 % 0 mm
00:48 8 °C 4 °C 1030 hPa Calm     76 % 0 mm
00:53 8.1 °C 4.3 °C 1030 hPa Calm     77 % 0 mm
00:55 5.7 °C 2.7 °C 1030 hPa Calm   3.2 km/h 81 % 0 mm
00:58 8.1 °C 4.3 °C 1030 hPa Calm     77 % 0 mm
01:03 8.1 °C 4.3 °C 1030.7 hPa Calm     77 % 0 mm
01:05 5.6 °C 2.6 °C 1029 hPa WSW 1.6 km/h 3.2 km/h 81 % 0 mm
01:08 8.1 °C 4.3 °C 1030.7 hPa Calm     77 % 0 mm
01:13 8 °C 4.2 °C 1030.7 hPa Calm     77 % 0 mm
01:18 7.8 °C 3.8 °C 1030 hPa WSW 1.9 km/h   76 % 0 mm
01:23 7.9 °C 4.1 °C 1030 hPa WSW 3.7 km/h 3.7 km/h 77 % 0 mm
01:25 5.3 °C 2.3 °C 1030 hPa Calm   3.2 km/h 81 % 0 mm
01:33 7.6 °C 3.8 °C 1030 hPa WSW 1.9 km/h   77 % 0 mm
01:35 5.2 °C 2.2 °C 1030 hPa Calm     81 % 0 mm
01:38 7.6 °C 3.8 °C 1030 hPa WSW 1.9 km/h 1.9 km/h 77 % 0 mm
01:45 5.1 °C 2.1 °C 1030 hPa Calm   3.2 km/h 81 % 0 mm
01:48 7.4 °C 3.6 °C 1030 hPa WSW 2.3 km/h 2.3 km/h 77 % 0 mm
01:55 5 °C 2 °C 1029 hPa Calm   3.2 km/h 81 % 0 mm
01:58 7.4 °C 3.6 °C 1030 hPa West 1.9 km/h 1.9 km/h 77 % 0 mm
02:03 7.3 °C 3.6 °C 1030 hPa Calm     77 % 0 mm
02:05 4.9 °C 1.9 °C 1029 hPa Calm     81 % 0 mm
02:13 7.4 °C 3.8 °C 1030 hPa Calm     78 % 0 mm
02:15 4.9 °C 2.1 °C 1029 hPa West 1.6 km/h 1.6 km/h 82 % 0 mm
02:18 7.4 °C 3.8 °C 1030 hPa NNE 1.9 km/h 1.9 km/h 78 % 0 mm
02:23 7.4 °C 3.8 °C 1030 hPa Calm     78 % 0 mm
02:25 4.8 °C 2 °C 1030 hPa NE 1.6 km/h 3.2 km/h 82 % 0 mm
02:28 7.4 °C 4 °C 1030 hPa Calm     79 % 0 mm
02:35 5 °C 2.2 °C 1030 hPa Calm   3.2 km/h 82 % 0 mm
02:38 7.4 °C 4 °C 1029 hPa Calm     79 % 0 mm
02:43 7.5 °C 4.1 °C 1029 hPa Calm     79 % 0 mm
02:45 4.9 °C 2.1 °C 1030 hPa ENE 3.2 km/h 3.2 km/h 82 % 0 mm
02:48 7.4 °C 4 °C 1030 hPa Calm     79 % 0 mm
02:55 4.9 °C 2.1 °C 1030 hPa Calm   3.2 km/h 82 % 0 mm
03:05 5.1 °C 2.3 °C 1030 hPa Calm   3.2 km/h 82 % 0 mm
03:35 6.9 °C 4.2 °C 1030 hPa Calm   3.2 km/h 83 % 0 mm
03:55 8 °C 4.9 °C 1030 hPa WSW 1.6 km/h 1.6 km/h 81 % 0 mm
04:05 8.5 °C 5.2 °C 1030 hPa SSW 1.6 km/h 3.2 km/h 80 % 0 mm
04:15 9.1 °C 5.7 °C 1030 hPa Calm   1.6 km/h 79 % 0 mm
04:25 9.7 °C 6.1 °C 1030 hPa Calm   1.6 km/h 78 % 0 mm
10:30 9.9 °C 5.9 °C 1030 hPa East 1.9 km/h 1.9 km/h 76 % 0 mm
10:35 10.1 °C 6.1 °C 1030.7 hPa ESE 3.5 km/h 3.5 km/h 76 % 0 mm
10:40 10 °C 5.8 °C 1030.7 hPa ENE 3.7 km/h 3.7 km/h 75 % 0 mm
10:45 10.1 °C 5.7 °C 1030.7 hPa ENE 3.7 km/h 3.7 km/h 74 % 0 mm
10:50 10.3 °C 5.7 °C 1030.7 hPa ENE 3.2 km/h 3.2 km/h 73 % 0 mm
10:55 10.6 °C 5.8 °C 1030.7 hPa East 4.7 km/h 4.7 km/h 72 % 0 mm
11:00 10.7 °C 5.8 °C 1030.7 hPa ESE 3.7 km/h 3.7 km/h 72 % 0 mm
11:05 10.7 °C 5.7 °C 1030 hPa ENE 3.7 km/h 3.7 km/h 71 % 0 mm
11:10 11 °C 5.9 °C 1030 hPa ESE 3.9 km/h 3.9 km/h 71 % 0 mm
11:15 11.1 °C 5.8 °C 1030 hPa ENE 3.7 km/h 3.7 km/h 70 % 0 mm
11:20 11.4 °C 6.1 °C 1030.7 hPa Calm     70 % 0 mm
11:25 11.9 °C 6.6 °C 1030.7 hPa ENE 3.9 km/h 3.9 km/h 70 % 0 mm
11:30 11.7 °C 6.2 °C 1030.7 hPa ESE 3.7 km/h 3.7 km/h 69 % 0 mm
11:35 11.5 °C 5.6 °C 1030.7 hPa ESE 5.6 km/h 5.6 km/h 67 % 0 mm
11:40 11.8 °C 6.3 °C 1030.7 hPa NE 3.7 km/h 3.7 km/h 69 % 0 mm
11:45 12.3 °C 6.6 °C 1030.7 hPa East 3.7 km/h 3.7 km/h 68 % 0 mm
11:50 12.3 °C 6.1 °C 1030 hPa ESE 3.9 km/h 3.9 km/h 66 % 0 mm
11:55 12.2 °C 6.1 °C 1030 hPa East 3.7 km/h   66 % 0 mm
12:00 12.5 °C 6.6 °C 1030 hPa ESE 3.7 km/h 3.7 km/h 67 % 0 mm
12:05 12.4 °C 6.2 °C 1030 hPa ENE 3.7 km/h 3.7 km/h 66 % 0 mm
12:10 12.5 °C 6.6 °C 1030 hPa ENE 1.9 km/h   67 % 0 mm
12:15 12.8 °C 6.6 °C 1030 hPa East 3.7 km/h 3.7 km/h 66 % 0 mm
12:20 12.9 °C 6.7 °C 1030 hPa SSW 3.7 km/h 3.7 km/h 66 % 0 mm
12:25 12.8 °C 6.4 °C 1030 hPa SE 4.7 km/h 4.7 km/h 65 % 0 mm
12:30 13.2 °C 6.8 °C 1030 hPa SE 1.9 km/h 1.9 km/h 65 % 0 mm
12:35 13.7 °C 7 °C 1029 hPa ESE 3.9 km/h 3.9 km/h 64 % 0 mm
12:40 13.7 °C 7 °C 1029 hPa NNE 3.7 km/h 3.7 km/h 64 % 0 mm
12:45 13.9 °C 7.2 °C 1029 hPa East 5.6 km/h 5.6 km/h 64 % 0 mm
12:50 14.1 °C 7.6 °C 1030 hPa WNW 3.7 km/h 3.7 km/h 65 % 0 mm
12:55 14.1 °C 7.4 °C 1030 hPa ENE 5.6 km/h 5.6 km/h 64 % 0 mm
13:00 14.7 °C 7.9 °C 1030 hPa South 3.7 km/h   64 % 0 mm
13:05 14.4 °C 7.4 °C 1029 hPa SE 7.4 km/h 7.4 km/h 63 % 0 mm
13:10 14.4 °C 7.7 °C 1029 hPa ENE 4.7 km/h 4.7 km/h 64 % 0 mm
13:15 14.6 °C 7.9 °C 1029 hPa ENE 3.7 km/h 3.7 km/h 64 % 0 mm
13:20 15.1 °C 8.6 °C 1029 hPa WSW 5 km/h 5 km/h 65 % 0 mm
13:25 15.5 °C 8.9 °C 1029 hPa SW 3.7 km/h 3.7 km/h 65 % 0 mm
13:30 16.1 °C 9.5 °C 1029 hPa WSW 4.2 km/h 5.3 km/h 65 % 0 mm
13:35 16.5 °C 9.7 °C 1028 hPa SW 9.3 km/h 9.3 km/h 64 % 0 mm
13:40 16.8 °C 9.7 °C 1028 hPa SSW 5.6 km/h 5.6 km/h 63 % 0 mm
13:45 17 °C 9.7 °C 1028 hPa South 5.6 km/h 5.6 km/h 62 % 0 mm
13:50 17.4 °C 10.1 °C 1028 hPa WSW 3.7 km/h 3.7 km/h 62 % 0 mm
13:55 17.3 °C 9.7 °C 1028 hPa SSE 5.6 km/h 5.6 km/h 61 % 0 mm
14:00 17.2 °C 9.4 °C 1028 hPa SE 3.7 km/h 3.7 km/h 60 % 0 mm
14:05 17.4 °C 9.6 °C 1028 hPa SW 6.4 km/h 6.4 km/h 60 % 0 mm
14:10 17.4 °C 9.6 °C 1028 hPa SW 14.8 km/h 14.8 km/h 60 % 0 mm
14:15 17.3 °C 8.9 °C 1028 hPa SW 13 km/h 13 km/h 58 % 0 mm
14:20 17.3 °C 8.9 °C 1028 hPa SW 5.6 km/h 5.6 km/h 58 % 0 mm
14:25 17.5 °C 9.2 °C 1028 hPa SW 5.6 km/h 5.6 km/h 58 % 0 mm
14:30 17.3 °C 8.9 °C 1028 hPa SSW 18.5 km/h 18.5 km/h 58 % 0 mm
14:35 17.2 °C 8.6 °C 1028 hPa WSW 5.6 km/h 5.6 km/h 57 % 0 mm
14:40 17.2 °C 8.6 °C 1028 hPa WSW 9.3 km/h 9.3 km/h 57 % 0 mm
14:45 17.4 °C 8.8 °C 1028 hPa SW 9.3 km/h 9.3 km/h 57 % 0 mm
14:50 17.5 °C 8.6 °C 1028 hPa SW 16.7 km/h 16.7 km/h 56 % 0 mm
14:55 17.5 °C 8.6 °C 1028 hPa SW 14.8 km/h 14.8 km/h 56 % 0 mm
15:00 17.7 °C 8.8 °C 1028 hPa SSW 9.3 km/h 9.3 km/h 56 % 0 mm
15:05 17.9 °C 8.7 °C 1028 hPa West 9.3 km/h 9.3 km/h 55 % 0 mm
15:10 17.8 °C 8.6 °C 1028 hPa SSE 9.3 km/h 9.3 km/h 55 % 0 mm
15:15 17.5 °C 8.3 °C 1028 hPa SSW 16.7 km/h 16.7 km/h 55 % 0 mm
15:20 17.5 °C 8.3 °C 1028 hPa SSW 7.4 km/h 7.4 km/h 55 % 0 mm
15:40 17.7 °C 8.3 °C 1028 hPa ESE 13 km/h 13 km/h 54 % 0 mm
15:45 17.7 °C 8.3 °C 1028 hPa SSW 16.7 km/h 16.7 km/h 54 % 0 mm
15:55 17.7 °C 8.3 °C 1028 hPa SW 5.6 km/h 5.6 km/h 54 % 0 mm
16:00 17.7 °C 8.3 °C 1028 hPa SW 13 km/h 13 km/h 54 % 0 mm
16:05 17.4 °C 8 °C 1028 hPa SW 13 km/h 13 km/h 54 % 0 mm
16:10 17.3 °C 7.9 °C 1028 hPa WSW 13.7 km/h 13.7 km/h 54 % 0 mm
16:15 17.1 °C 7.7 °C 1028 hPa SW 16.7 km/h 16.7 km/h 54 % 0 mm
16:20 17.1 °C 7.4 °C 1027 hPa WSW 13 km/h 13 km/h 53 % 0 mm
16:25 17 °C 7.6 °C 1027 hPa SW 9.3 km/h 9.3 km/h 54 % 0 mm
16:30 16.9 °C 7.5 °C 1027 hPa SSW 20.4 km/h 20.4 km/h 54 % 0 mm
16:40 16.7 °C 7.6 °C 1028 hPa WSW 15.1 km/h 15.1 km/h 55 % 0 mm
16:45 16.6 °C 7.5 °C 1028 hPa SSW 13 km/h 13 km/h 55 % 0 mm
16:50 16.6 °C 7.5 °C 1028 hPa SW 7.4 km/h 7.4 km/h 55 % 0 mm
17:00 16.5 °C 7.4 °C 1028 hPa SSW 9.5 km/h 9.5 km/h 55 % 0 mm
17:05 16.4 °C 7.3 °C 1027 hPa WSW 9.3 km/h 9.3 km/h 55 % 0 mm
17:10 16.2 °C 7.2 °C 1027 hPa SW 9.3 km/h 9.3 km/h 55 % 0 mm
17:15 16 °C 6.9 °C 1027 hPa West 13 km/h 13 km/h 55 % 0 mm
17:20 15.9 °C 7.1 °C 1028 hPa SSW 11.1 km/h 11.1 km/h 56 % 0 mm
17:25 15.8 °C 7.1 °C 1028 hPa SW 7.9 km/h 7.9 km/h 56 % 0 mm
17:30 15.7 °C 6.9 °C 1028 hPa WSW 3.7 km/h 5 km/h 56 % 0 mm
17:40 15.3 °C 6.8 °C 1028 hPa WSW 9.3 km/h 9.3 km/h 57 % 0 mm
17:45 15 °C 6.6 °C 1028 hPa WSW 9.3 km/h 9.3 km/h 57 % 0 mm
17:55 14.6 °C 6.4 °C 1028 hPa SW 5.6 km/h 5.6 km/h 58 % 0 mm
18:05 14.2 °C 6.3 °C 1028 hPa WNW 5.6 km/h 5.6 km/h 59 % 0 mm
18:15 14 °C 6.3 °C 1028 hPa South 7.4 km/h 7.4 km/h 60 % 0 mm
18:20 13.8 °C 6.4 °C 1028 hPa West 6.1 km/h 6.1 km/h 61 % 0 mm
18:25 13.6 °C 6.2 °C 1028 hPa SW 5.6 km/h 5.6 km/h 61 % 0 mm
18:30 13.5 °C 6.1 °C 1028 hPa WSW 5.8 km/h 5.8 km/h 61 % 0 mm
18:35 13.4 °C 6.3 °C 1028 hPa SW 3.7 km/h 3.7 km/h 62 % 0 mm
18:40 13.2 °C 6.1 °C 1028 hPa SSW 7.4 km/h 7.4 km/h 62 % 0 mm
18:45 13.1 °C 6 °C 1028 hPa SW 7.4 km/h 7.4 km/h 62 % 0 mm
18:55 12.8 °C 5.9 °C 1028 hPa WSW 3.7 km/h 3.7 km/h 63 % 0 mm
19:00 12.7 °C 5.8 °C 1028 hPa SW 5.6 km/h 5.6 km/h 63 % 0 mm
19:10 12.4 °C 5.8 °C 1028 hPa WSW 3.7 km/h 3.7 km/h 64 % 0 mm
19:15 12.3 °C 5.9 °C 1028 hPa WSW 3.7 km/h 3.7 km/h 65 % 0 mm
19:22 12.1 °C 5.7 °C 1028 hPa SW 3.7 km/h 3.7 km/h 65 % 0 mm
19:27 12 °C 5.8 °C 1028 hPa SW 5.6 km/h 5.6 km/h 66 % 0 mm
19:32 11.9 °C 5.7 °C 1028 hPa WSW 7.4 km/h 7.4 km/h 66 % 0 mm
19:37 11.9 °C 5.9 °C 1028 hPa WSW 9.3 km/h 9.3 km/h 67 % 0 mm
19:42 11.8 °C 5.9 °C 1028 hPa WSW 3.7 km/h 3.7 km/h 67 % 0 mm
19:52 11.6 °C 5.9 °C 1028 hPa West 3.7 km/h 3.7 km/h 68 % 0 mm
19:57 11.5 °C 6 °C 1028 hPa West 3.2 km/h 3.2 km/h 69 % 0 mm
20:02 11.4 °C 5.9 °C 1028 hPa West 3.2 km/h 3.2 km/h 69 % 0 mm
20:17 11.3 °C 6 °C 1028 hPa WSW 3.7 km/h 3.7 km/h 70 % 0 mm
20:22 11.2 °C 6.1 °C 1028 hPa SW 3.7 km/h 3.7 km/h 71 % 0 mm
20:27 11 °C 5.9 °C 1028 hPa SW 3.7 km/h 3.7 km/h 71 % 0 mm
20:32 10.9 °C 5.8 °C 1028 hPa WSW 3.7 km/h 3.7 km/h 71 % 0 mm
20:37 10.9 °C 6.1 °C 1028 hPa WSW 3.7 km/h 3.7 km/h 72 % 0 mm
20:42 10.9 °C 6.1 °C 1028 hPa West 3.7 km/h 3.7 km/h 72 % 0 mm
20:52 10.7 °C 6.1 °C 1028 hPa WSW 3.7 km/h 3.7 km/h 73 % 0 mm
20:57 10.6 °C 5.9 °C 1028 hPa WSW 5.6 km/h 5.6 km/h 73 % 0 mm
21:02 10.5 °C 6.1 °C 1028 hPa SW 2.6 km/h 2.6 km/h 74 % 0 mm
21:07 10.4 °C 5.9 °C 1028 hPa WSW 5 km/h 5 km/h 74 % 0 mm
21:17 10.2 °C 5.9 °C 1028 hPa WSW 3.7 km/h 3.7 km/h 75 % 0 mm
21:22 10.1 °C 6.1 °C 1028 hPa WSW 1.9 km/h 2.3 km/h 76 % 0 mm
21:27 10.1 °C 6.1 °C 1028 hPa Calm     76 % 0 mm
21:37 10 °C 5.9 °C 1028 hPa WSW 3.7 km/h 3.7 km/h 76 % 0 mm
21:42 10 °C 5.9 °C 1028 hPa WSW 3.7 km/h 3.7 km/h 76 % 0 mm
21:47 9.9 °C 5.9 °C 1028 hPa West 3.7 km/h 3.7 km/h 76 % 0 mm
21:52 9.7 °C 5.8 °C 1028 hPa WSW 1.9 km/h   77 % 0 mm
21:57 9.5 °C 5.7 °C 1028 hPa WSW 3.7 km/h 3.7 km/h 77 % 0 mm
22:02 9.4 °C 5.6 °C 1028 hPa WSW 1.9 km/h   77 % 0 mm
22:07 9.3 °C 5.4 °C 1028 hPa SW 1.9 km/h 1.9 km/h 77 % 0 mm
22:12 9.3 °C 5.7 °C 1028 hPa Calm     78 % 0 mm
22:17 9.2 °C 5.6 °C 1028 hPa WSW 2.3 km/h 2.3 km/h 78 % 0 mm
22:22 9.1 °C 5.4 °C 1028 hPa Calm     78 % 0 mm
22:27 9.1 °C 5.4 °C 1028 hPa WSW 2.6 km/h 2.6 km/h 78 % 0 mm
22:32 9.1 °C 5.4 °C 1027 hPa WSW 1.9 km/h   78 % 0 mm
22:37 9 °C 5.6 °C 1027 hPa Calm     79 % 0 mm
22:42 8.9 °C 5.4 °C 1027 hPa Calm     79 % 0 mm
22:47 8.8 °C 5.3 °C 1028 hPa Calm     79 % 0 mm
22:52 8.7 °C 5.3 °C 1028 hPa Calm     79 % 0 mm
22:57 8.7 °C 5.3 °C 1028 hPa Calm     79 % 0 mm
23:02 8.6 °C 5.2 °C 1028 hPa Calm     79 % 0 mm
23:07 8.5 °C 5.1 °C 1028 hPa Calm     79 % 0 mm
23:12 8.5 °C 5.1 °C 1028 hPa Calm     79 % 0 mm
23:17 8.5 °C 5.2 °C 1028 hPa Calm     80 % 0 mm
23:22 8.3 °C 5.1 °C 1028 hPa Calm     80 % 0 mm
23:27 8.1 °C 4.7 °C 1028 hPa Calm     79 % 0 mm
23:32 7.8 °C 4.4 °C 1027 hPa ENE 2.6 km/h   79 % 0 mm
23:37 7.7 °C 4.4 °C 1027 hPa Calm     80 % 0 mm
23:42 7.5 °C 4.3 °C 1027 hPa Calm     80 % 0 mm
23:47 7.4 °C 4.2 °C 1027 hPa ENE 1.9 km/h   80 % 0 mm
23:52 7.2 °C 4 °C 1027 hPa ENE 1.9 km/h 1.9 km/h 80 % 0 mm
23:57 7.1 °C 3.9 °C 1027 hPa ENE 1.4 km/h   80 % 0 mm
Meteo Sesrovires
Elogis d' Weather Underground - 1.5 mb

Guio original per  Jim McMurry - jmcmurry@mwt.net Adaptat per a la plantilla per  Wim van der Kuil - Leuven-Template.eu

Trobareu la nostra informacio del temps tambe a:

Weather Underground

AWEKAS